sensor_id;sensor_type;location;lat;lon;timestamp;P1;durP1;ratioP1;P2;durP2;ratioP2
35558;SDS011;21661;50.794;-1.066;2023-08-30T00:00:18;2.97;;;2.08;;
35558;SDS011;21661;50.794;-1.066;2023-08-30T00:02:46;3.55;;;2.35;;
35558;SDS011;21661;50.794;-1.066;2023-08-30T00:05:12;4.85;;;2.40;;
35558;SDS011;21661;50.794;-1.066;2023-08-30T00:07:38;3.53;;;2.05;;
35558;SDS011;21661;50.794;-1.066;2023-08-30T00:10:05;3.25;;;2.00;;
35558;SDS011;21661;50.794;-1.066;2023-08-30T00:12:31;3.30;;;2.20;;
35558;SDS011;21661;50.794;-1.066;2023-08-30T00:14:57;4.82;;;2.35;;
35558;SDS011;21661;50.794;-1.066;2023-08-30T00:17:22;5.45;;;2.17;;
35558;SDS011;21661;50.794;-1.066;2023-08-30T00:19:48;3.95;;;2.40;;
35558;SDS011;21661;50.794;-1.066;2023-08-30T00:22:14;3.33;;;1.95;;
35558;SDS011;21661;50.794;-1.066;2023-08-30T00:24:39;5.72;;;2.45;;
35558;SDS011;21661;50.794;-1.066;2023-08-30T00:27:05;4.07;;;2.13;;
35558;SDS011;21661;50.794;-1.066;2023-08-30T00:29:31;3.22;;;2.20;;
35558;SDS011;21661;50.794;-1.066;2023-08-30T00:31:56;3.83;;;2.00;;
35558;SDS011;21661;50.794;-1.066;2023-08-30T00:34:22;3.85;;;2.08;;
35558;SDS011;21661;50.794;-1.066;2023-08-30T00:36:48;2.60;;;1.67;;
35558;SDS011;21661;50.794;-1.066;2023-08-30T00:39:13;3.78;;;2.20;;
35558;SDS011;21661;50.794;-1.066;2023-08-30T00:41:39;3.45;;;2.08;;
35558;SDS011;21661;50.794;-1.066;2023-08-30T00:44:05;3.10;;;1.90;;
35558;SDS011;21661;50.794;-1.066;2023-08-30T00:46:32;3.40;;;1.95;;
35558;SDS011;21661;50.794;-1.066;2023-08-30T00:49:01;3.70;;;1.75;;
35558;SDS011;21661;50.794;-1.066;2023-08-30T00:51:28;3.25;;;2.00;;
35558;SDS011;21661;50.794;-1.066;2023-08-30T00:53:54;4.85;;;2.05;;
35558;SDS011;21661;50.794;-1.066;2023-08-30T00:56:20;3.92;;;2.03;;
35558;SDS011;21661;50.794;-1.066;2023-08-30T00:58:47;7.18;;;2.00;;
35558;SDS011;21661;50.794;-1.066;2023-08-30T01:01:14;4.70;;;2.20;;
35558;SDS011;21661;50.794;-1.066;2023-08-30T01:03:41;3.60;;;1.60;;
35558;SDS011;21661;50.794;-1.066;2023-08-30T01:06:06;4.35;;;1.80;;
35558;SDS011;21661;50.794;-1.066;2023-08-30T01:08:32;3.45;;;1.80;;
35558;SDS011;21661;50.794;-1.066;2023-08-30T01:13:29;5.65;;;1.80;;
35558;SDS011;21661;50.794;-1.066;2023-08-30T01:15:58;2.88;;;1.80;;
35558;SDS011;21661;50.794;-1.066;2023-08-30T01:18:26;4.22;;;1.60;;
35558;SDS011;21661;50.794;-1.066;2023-08-30T01:20:54;2.70;;;1.48;;
35558;SDS011;21661;50.794;-1.066;2023-08-30T01:26:20;5.85;;;1.88;;
35558;SDS011;21661;50.794;-1.066;2023-08-30T01:29:07;4.22;;;2.03;;
35558;SDS011;21661;50.794;-1.066;2023-08-30T01:31:36;4.18;;;1.85;;
35558;SDS011;21661;50.794;-1.066;2023-08-30T01:34:05;7.55;;;1.90;;
35558;SDS011;21661;50.794;-1.066;2023-08-30T01:36:31;5.07;;;2.17;;
35558;SDS011;21661;50.794;-1.066;2023-08-30T01:39:00;5.72;;;1.90;;
35558;SDS011;21661;50.794;-1.066;2023-08-30T01:41:26;5.90;;;1.80;;
35558;SDS011;21661;50.794;-1.066;2023-08-30T01:43:53;6.20;;;2.00;;
35558;SDS011;21661;50.794;-1.066;2023-08-30T01:46:20;5.80;;;1.90;;
35558;SDS011;21661;50.794;-1.066;2023-08-30T01:48:47;5.75;;;2.10;;
35558;SDS011;21661;50.794;-1.066;2023-08-30T01:51:13;7.00;;;1.95;;
35558;SDS011;21661;50.794;-1.066;2023-08-30T01:53:41;4.90;;;1.75;;
35558;SDS011;21661;50.794;-1.066;2023-08-30T01:56:09;5.90;;;1.98;;
35558;SDS011;21661;50.794;-1.066;2023-08-30T01:58:34;8.60;;;1.73;;
35558;SDS011;21661;50.794;-1.066;2023-08-30T02:01:00;5.90;;;1.73;;
35558;SDS011;21661;50.794;-1.066;2023-08-30T02:03:26;7.85;;;1.85;;
35558;SDS011;21661;50.794;-1.066;2023-08-30T02:06:05;4.28;;;2.03;;
35558;SDS011;21661;50.794;-1.066;2023-08-30T02:11:27;9.80;;;2.10;;
35558;SDS011;21661;50.794;-1.066;2023-08-30T02:13:54;5.20;;;1.92;;
35558;SDS011;21661;50.794;-1.066;2023-08-30T02:16:23;4.78;;;1.88;;
35558;SDS011;21661;50.794;-1.066;2023-08-30T02:18:50;7.95;;;2.00;;
35558;SDS011;21661;50.794;-1.066;2023-08-30T02:21:16;7.03;;;1.90;;
35558;SDS011;21661;50.794;-1.066;2023-08-30T02:23:42;6.07;;;2.30;;
35558;SDS011;21661;50.794;-1.066;2023-08-30T02:26:07;5.00;;;2.17;;
35558;SDS011;21661;50.794;-1.066;2023-08-30T02:28:33;4.57;;;2.10;;
35558;SDS011;21661;50.794;-1.066;2023-08-30T02:30:59;6.07;;;2.00;;
35558;SDS011;21661;50.794;-1.066;2023-08-30T02:33:24;6.88;;;1.95;;
35558;SDS011;21661;50.794;-1.066;2023-08-30T02:35:50;5.90;;;1.73;;
35558;SDS011;21661;50.794;-1.066;2023-08-30T02:38:16;7.47;;;2.13;;
35558;SDS011;21661;50.794;-1.066;2023-08-30T02:40:42;4.55;;;1.98;;
35558;SDS011;21661;50.794;-1.066;2023-08-30T02:43:08;4.88;;;2.10;;
35558;SDS011;21661;50.794;-1.066;2023-08-30T02:45:33;4.50;;;1.85;;
35558;SDS011;21661;50.794;-1.066;2023-08-30T02:47:59;9.18;;;2.60;;
35558;SDS011;21661;50.794;-1.066;2023-08-30T02:50:25;5.80;;;1.75;;
35558;SDS011;21661;50.794;-1.066;2023-08-30T02:52:51;7.63;;;2.00;;
35558;SDS011;21661;50.794;-1.066;2023-08-30T02:55:17;9.73;;;2.05;;
35558;SDS011;21661;50.794;-1.066;2023-08-30T02:57:43;8.80;;;2.40;;
35558;SDS011;21661;50.794;-1.066;2023-08-30T03:00:09;5.03;;;1.88;;
35558;SDS011;21661;50.794;-1.066;2023-08-30T03:02:35;6.18;;;2.13;;
35558;SDS011;21661;50.794;-1.066;2023-08-30T03:05:00;5.28;;;1.95;;
35558;SDS011;21661;50.794;-1.066;2023-08-30T03:07:28;5.00;;;2.00;;
35558;SDS011;21661;50.794;-1.066;2023-08-30T03:09:54;5.50;;;1.90;;
35558;SDS011;21661;50.794;-1.066;2023-08-30T03:12:20;11.75;;;2.05;;
35558;SDS011;21661;50.794;-1.066;2023-08-30T03:14:46;7.65;;;1.80;;
35558;SDS011;21661;50.794;-1.066;2023-08-30T03:17:11;8.35;;;2.00;;
35558;SDS011;21661;50.794;-1.066;2023-08-30T03:19:37;6.95;;;2.00;;
35558;SDS011;21661;50.794;-1.066;2023-08-30T03:22:03;6.15;;;1.80;;
35558;SDS011;21661;50.794;-1.066;2023-08-30T03:24:28;8.52;;;2.10;;
35558;SDS011;21661;50.794;-1.066;2023-08-30T03:26:54;9.50;;;2.22;;
35558;SDS011;21661;50.794;-1.066;2023-08-30T03:29:20;6.85;;;1.95;;
35558;SDS011;21661;50.794;-1.066;2023-08-30T03:31:45;13.02;;;2.55;;
35558;SDS011;21661;50.794;-1.066;2023-08-30T03:34:12;9.02;;;2.40;;
35558;SDS011;21661;50.794;-1.066;2023-08-30T03:36:38;5.35;;;1.90;;
35558;SDS011;21661;50.794;-1.066;2023-08-30T03:39:04;7.50;;;2.40;;
35558;SDS011;21661;50.794;-1.066;2023-08-30T03:41:30;9.55;;;2.78;;
35558;SDS011;21661;50.794;-1.066;2023-08-30T03:43:55;8.15;;;2.63;;
35558;SDS011;21661;50.794;-1.066;2023-08-30T03:46:21;11.25;;;2.03;;
35558;SDS011;21661;50.794;-1.066;2023-08-30T03:48:46;8.90;;;2.38;;
35558;SDS011;21661;50.794;-1.066;2023-08-30T03:51:12;6.28;;;1.90;;
35558;SDS011;21661;50.794;-1.066;2023-08-30T03:53:38;6.32;;;2.13;;
35558;SDS011;21661;50.794;-1.066;2023-08-30T03:56:03;10.50;;;2.63;;
35558;SDS011;21661;50.794;-1.066;2023-08-30T03:58:29;6.75;;;2.20;;
35558;SDS011;21661;50.794;-1.066;2023-08-30T04:00:55;8.48;;;2.22;;
35558;SDS011;21661;50.794;-1.066;2023-08-30T04:03:22;7.43;;;2.20;;
35558;SDS011;21661;50.794;-1.066;2023-08-30T04:05:47;7.35;;;2.55;;
35558;SDS011;21661;50.794;-1.066;2023-08-30T04:08:13;10.60;;;2.42;;
35558;SDS011;21661;50.794;-1.066;2023-08-30T04:10:39;7.85;;;2.67;;
35558;SDS011;21661;50.794;-1.066;2023-08-30T04:13:06;5.15;;;2.15;;
35558;SDS011;21661;50.794;-1.066;2023-08-30T04:15:33;9.45;;;2.67;;
35558;SDS011;21661;50.794;-1.066;2023-08-30T04:18:00;5.85;;;2.50;;
35558;SDS011;21661;50.794;-1.066;2023-08-30T04:20:25;8.25;;;2.85;;
35558;SDS011;21661;50.794;-1.066;2023-08-30T04:22:51;5.63;;;2.35;;
35558;SDS011;21661;50.794;-1.066;2023-08-30T04:25:18;7.93;;;2.92;;
35558;SDS011;21661;50.794;-1.066;2023-08-30T04:27:44;8.30;;;2.40;;
35558;SDS011;21661;50.794;-1.066;2023-08-30T04:30:09;6.85;;;2.15;;
35558;SDS011;21661;50.794;-1.066;2023-08-30T04:32:35;8.13;;;2.60;;
35558;SDS011;21661;50.794;-1.066;2023-08-30T04:35:01;5.13;;;2.00;;
35558;SDS011;21661;50.794;-1.066;2023-08-30T04:37:29;9.02;;;2.28;;
35558;SDS011;21661;50.794;-1.066;2023-08-30T04:39:58;8.10;;;2.35;;
35558;SDS011;21661;50.794;-1.066;2023-08-30T04:42:24;8.93;;;2.67;;
35558;SDS011;21661;50.794;-1.066;2023-08-30T04:44:50;5.30;;;1.90;;
35558;SDS011;21661;50.794;-1.066;2023-08-30T04:47:17;9.95;;;2.22;;
35558;SDS011;21661;50.794;-1.066;2023-08-30T04:49:42;8.35;;;2.72;;
35558;SDS011;21661;50.794;-1.066;2023-08-30T04:52:08;8.45;;;2.10;;
35558;SDS011;21661;50.794;-1.066;2023-08-30T04:54:33;6.97;;;3.13;;
35558;SDS011;21661;50.794;-1.066;2023-08-30T04:56:59;11.27;;;2.35;;
35558;SDS011;21661;50.794;-1.066;2023-08-30T04:59:25;5.60;;;2.15;;
35558;SDS011;21661;50.794;-1.066;2023-08-30T05:01:50;7.30;;;2.00;;
35558;SDS011;21661;50.794;-1.066;2023-08-30T05:04:17;9.13;;;2.67;;
35558;SDS011;21661;50.794;-1.066;2023-08-30T05:06:43;7.13;;;2.95;;
35558;SDS011;21661;50.794;-1.066;2023-08-30T05:09:08;6.10;;;2.20;;
35558;SDS011;21661;50.794;-1.066;2023-08-30T05:11:34;7.20;;;2.20;;
35558;SDS011;21661;50.794;-1.066;2023-08-30T05:13:59;7.22;;;2.17;;
35558;SDS011;21661;50.794;-1.066;2023-08-30T05:16:25;8.60;;;2.20;;
35558;SDS011;21661;50.794;-1.066;2023-08-30T05:18:51;6.53;;;2.33;;
35558;SDS011;21661;50.794;-1.066;2023-08-30T05:21:16;6.28;;;2.40;;
35558;SDS011;21661;50.794;-1.066;2023-08-30T05:23:42;8.73;;;2.70;;
35558;SDS011;21661;50.794;-1.066;2023-08-30T05:26:09;5.80;;;2.47;;
35558;SDS011;21661;50.794;-1.066;2023-08-30T05:28:37;9.27;;;2.83;;
35558;SDS011;21661;50.794;-1.066;2023-08-30T05:31:03;8.68;;;2.10;;
35558;SDS011;21661;50.794;-1.066;2023-08-30T05:33:29;9.65;;;2.78;;
35558;SDS011;21661;50.794;-1.066;2023-08-30T05:35:55;8.30;;;2.38;;
35558;SDS011;21661;50.794;-1.066;2023-08-30T05:38:20;6.93;;;2.78;;
35558;SDS011;21661;50.794;-1.066;2023-08-30T05:40:46;7.22;;;2.60;;
35558;SDS011;21661;50.794;-1.066;2023-08-30T05:43:12;7.68;;;2.65;;
35558;SDS011;21661;50.794;-1.066;2023-08-30T05:45:37;8.25;;;3.33;;
35558;SDS011;21661;50.794;-1.066;2023-08-30T05:48:03;7.80;;;3.70;;
35558;SDS011;21661;50.794;-1.066;2023-08-30T05:50:30;7.90;;;3.38;;
35558;SDS011;21661;50.794;-1.066;2023-08-30T05:52:55;7.78;;;2.70;;
35558;SDS011;21661;50.794;-1.066;2023-08-30T05:55:21;8.05;;;2.80;;
35558;SDS011;21661;50.794;-1.066;2023-08-30T05:57:46;6.55;;;2.97;;
35558;SDS011;21661;50.794;-1.066;2023-08-30T06:00:12;7.32;;;2.53;;
35558;SDS011;21661;50.794;-1.066;2023-08-30T06:02:39;6.07;;;2.63;;
35558;SDS011;21661;50.794;-1.066;2023-08-30T06:05:06;7.93;;;3.22;;
35558;SDS011;21661;50.794;-1.066;2023-08-30T06:07:32;8.32;;;2.67;;
35558;SDS011;21661;50.794;-1.066;2023-08-30T06:09:58;8.85;;;2.78;;
35558;SDS011;21661;50.794;-1.066;2023-08-30T06:12:23;5.47;;;2.70;;
35558;SDS011;21661;50.794;-1.066;2023-08-30T06:14:50;6.57;;;2.58;;
35558;SDS011;21661;50.794;-1.066;2023-08-30T06:17:17;7.00;;;2.53;;
35558;SDS011;21661;50.794;-1.066;2023-08-30T06:19:47;6.35;;;2.47;;
35558;SDS011;21661;50.794;-1.066;2023-08-30T06:22:13;7.43;;;2.70;;
35558;SDS011;21661;50.794;-1.066;2023-08-30T06:24:38;7.72;;;2.50;;
35558;SDS011;21661;50.794;-1.066;2023-08-30T06:27:04;8.25;;;3.05;;
35558;SDS011;21661;50.794;-1.066;2023-08-30T06:29:30;9.00;;;2.70;;
35558;SDS011;21661;50.794;-1.066;2023-08-30T06:31:56;7.07;;;2.92;;
35558;SDS011;21661;50.794;-1.066;2023-08-30T06:34:22;8.30;;;2.95;;
35558;SDS011;21661;50.794;-1.066;2023-08-30T06:36:48;6.18;;;2.42;;
35558;SDS011;21661;50.794;-1.066;2023-08-30T06:39:14;8.15;;;2.80;;
35558;SDS011;21661;50.794;-1.066;2023-08-30T06:41:39;5.20;;;2.70;;
35558;SDS011;21661;50.794;-1.066;2023-08-30T06:44:05;8.68;;;3.03;;
35558;SDS011;21661;50.794;-1.066;2023-08-30T06:46:31;7.47;;;3.08;;
35558;SDS011;21661;50.794;-1.066;2023-08-30T06:48:56;8.82;;;2.80;;
35558;SDS011;21661;50.794;-1.066;2023-08-30T06:51:22;7.80;;;2.70;;
35558;SDS011;21661;50.794;-1.066;2023-08-30T06:53:47;7.10;;;2.67;;
35558;SDS011;21661;50.794;-1.066;2023-08-30T06:56:13;7.03;;;2.88;;
35558;SDS011;21661;50.794;-1.066;2023-08-30T06:58:39;11.48;;;4.03;;
35558;SDS011;21661;50.794;-1.066;2023-08-30T07:01:04;11.90;;;2.75;;
35558;SDS011;21661;50.794;-1.066;2023-08-30T07:03:30;8.40;;;2.90;;
35558;SDS011;21661;50.794;-1.066;2023-08-30T07:05:56;9.43;;;2.70;;
35558;SDS011;21661;50.794;-1.066;2023-08-30T07:08:21;7.78;;;2.75;;
35558;SDS011;21661;50.794;-1.066;2023-08-30T07:10:47;11.18;;;2.65;;
35558;SDS011;21661;50.794;-1.066;2023-08-30T07:13:13;10.43;;;3.13;;
35558;SDS011;21661;50.794;-1.066;2023-08-30T07:15:39;8.27;;;3.15;;
35558;SDS011;21661;50.794;-1.066;2023-08-30T07:18:05;8.52;;;2.83;;
35558;SDS011;21661;50.794;-1.066;2023-08-30T07:20:32;7.43;;;3.30;;
35558;SDS011;21661;50.794;-1.066;2023-08-30T07:22:57;9.32;;;3.45;;
35558;SDS011;21661;50.794;-1.066;2023-08-30T07:25:23;12.93;;;3.42;;
35558;SDS011;21661;50.794;-1.066;2023-08-30T07:27:49;7.90;;;3.15;;
35558;SDS011;21661;50.794;-1.066;2023-08-30T07:30:15;7.07;;;2.88;;
35558;SDS011;21661;50.794;-1.066;2023-08-30T07:32:41;8.20;;;2.65;;
35558;SDS011;21661;50.794;-1.066;2023-08-30T07:35:09;7.32;;;2.33;;
35558;SDS011;21661;50.794;-1.066;2023-08-30T07:37:35;8.95;;;2.50;;
35558;SDS011;21661;50.794;-1.066;2023-08-30T07:40:01;9.00;;;2.75;;
35558;SDS011;21661;50.794;-1.066;2023-08-30T07:42:30;9.68;;;3.05;;
35558;SDS011;21661;50.794;-1.066;2023-08-30T07:44:56;8.60;;;2.33;;
35558;SDS011;21661;50.794;-1.066;2023-08-30T07:47:21;8.27;;;2.60;;
35558;SDS011;21661;50.794;-1.066;2023-08-30T07:49:47;9.63;;;2.65;;
35558;SDS011;21661;50.794;-1.066;2023-08-30T07:52:13;10.32;;;3.00;;
35558;SDS011;21661;50.794;-1.066;2023-08-30T07:54:39;10.50;;;2.83;;
35558;SDS011;21661;50.794;-1.066;2023-08-30T07:57:05;8.68;;;2.35;;
35558;SDS011;21661;50.794;-1.066;2023-08-30T07:59:35;7.95;;;2.50;;
35558;SDS011;21661;50.794;-1.066;2023-08-30T08:02:01;7.22;;;2.33;;
35558;SDS011;21661;50.794;-1.066;2023-08-30T08:06:58;8.20;;;2.03;;
35558;SDS011;21661;50.794;-1.066;2023-08-30T08:09:24;8.52;;;2.17;;
35558;SDS011;21661;50.794;-1.066;2023-08-30T08:11:50;5.90;;;2.28;;
35558;SDS011;21661;50.794;-1.066;2023-08-30T08:14:15;9.43;;;2.42;;
35558;SDS011;21661;50.794;-1.066;2023-08-30T08:16:41;7.43;;;2.67;;
35558;SDS011;21661;50.794;-1.066;2023-08-30T08:19:07;6.88;;;1.90;;
35558;SDS011;21661;50.794;-1.066;2023-08-30T08:21:33;10.95;;;2.92;;
35558;SDS011;21661;50.794;-1.066;2023-08-30T08:23:59;10.73;;;2.42;;
35558;SDS011;21661;50.794;-1.066;2023-08-30T08:26:25;5.20;;;2.10;;
35558;SDS011;21661;50.794;-1.066;2023-08-30T08:28:50;8.10;;;2.42;;
35558;SDS011;21661;50.794;-1.066;2023-08-30T08:31:16;9.60;;;2.60;;
35558;SDS011;21661;50.794;-1.066;2023-08-30T08:33:43;8.93;;;2.35;;
35558;SDS011;21661;50.794;-1.066;2023-08-30T08:36:08;7.90;;;2.33;;
35558;SDS011;21661;50.794;-1.066;2023-08-30T08:38:34;6.75;;;2.97;;
35558;SDS011;21661;50.794;-1.066;2023-08-30T08:41:04;9.85;;;2.55;;
35558;SDS011;21661;50.794;-1.066;2023-08-30T08:43:33;9.18;;;2.38;;
35558;SDS011;21661;50.794;-1.066;2023-08-30T08:46:01;9.10;;;2.58;;
35558;SDS011;21661;50.794;-1.066;2023-08-30T08:48:28;11.38;;;2.10;;
35558;SDS011;21661;50.794;-1.066;2023-08-30T08:50:56;6.55;;;2.33;;
35558;SDS011;21661;50.794;-1.066;2023-08-30T08:53:22;8.02;;;2.22;;
35558;SDS011;21661;50.794;-1.066;2023-08-30T08:55:48;5.80;;;2.03;;
35558;SDS011;21661;50.794;-1.066;2023-08-30T08:58:15;8.52;;;2.40;;
35558;SDS011;21661;50.794;-1.066;2023-08-30T09:00:44;5.32;;;1.85;;
35558;SDS011;21661;50.794;-1.066;2023-08-30T09:03:10;7.57;;;2.13;;
35558;SDS011;21661;50.794;-1.066;2023-08-30T09:05:39;5.40;;;1.95;;
35558;SDS011;21661;50.794;-1.066;2023-08-30T09:08:06;8.20;;;2.95;;
35558;SDS011;21661;50.794;-1.066;2023-08-30T09:10:32;8.88;;;1.80;;
35558;SDS011;21661;50.794;-1.066;2023-08-30T09:12:58;8.50;;;2.22;;
35558;SDS011;21661;50.794;-1.066;2023-08-30T09:15:33;7.45;;;2.00;;
35558;SDS011;21661;50.794;-1.066;2023-08-30T09:17:59;13.75;;;2.83;;
35558;SDS011;21661;50.794;-1.066;2023-08-30T09:20:25;5.38;;;1.80;;
35558;SDS011;21661;50.794;-1.066;2023-08-30T09:22:51;4.65;;;2.00;;
35558;SDS011;21661;50.794;-1.066;2023-08-30T09:25:24;6.53;;;1.50;;
35558;SDS011;21661;50.794;-1.066;2023-08-30T09:27:50;6.65;;;1.80;;
35558;SDS011;21661;50.794;-1.066;2023-08-30T09:30:22;7.82;;;1.80;;
35558;SDS011;21661;50.794;-1.066;2023-08-30T09:32:48;6.80;;;2.13;;
35558;SDS011;21661;50.794;-1.066;2023-08-30T09:35:14;7.20;;;2.25;;
35558;SDS011;21661;50.794;-1.066;2023-08-30T09:37:39;5.82;;;1.67;;
35558;SDS011;21661;50.794;-1.066;2023-08-30T09:40:05;6.13;;;2.03;;
35558;SDS011;21661;50.794;-1.066;2023-08-30T09:42:31;5.30;;;1.60;;
35558;SDS011;21661;50.794;-1.066;2023-08-30T09:44:57;5.53;;;2.15;;
35558;SDS011;21661;50.794;-1.066;2023-08-30T09:47:24;4.30;;;1.42;;
35558;SDS011;21661;50.794;-1.066;2023-08-30T09:49:54;4.90;;;1.50;;
35558;SDS011;21661;50.794;-1.066;2023-08-30T09:52:23;3.53;;;1.83;;
35558;SDS011;21661;50.794;-1.066;2023-08-30T09:54:50;5.57;;;1.90;;
35558;SDS011;21661;50.794;-1.066;2023-08-30T09:57:17;5.38;;;1.58;;
35558;SDS011;21661;50.794;-1.066;2023-08-30T09:59:43;5.97;;;1.58;;
35558;SDS011;21661;50.794;-1.066;2023-08-30T10:02:11;5.72;;;1.40;;
35558;SDS011;21661;50.794;-1.066;2023-08-30T10:04:39;3.95;;;1.92;;
35558;SDS011;21661;50.794;-1.066;2023-08-30T10:07:05;4.55;;;1.73;;
35558;SDS011;21661;50.794;-1.066;2023-08-30T10:09:32;6.28;;;1.77;;
35558;SDS011;21661;50.794;-1.066;2023-08-30T10:11:58;4.95;;;1.60;;
35558;SDS011;21661;50.794;-1.066;2023-08-30T10:14:26;5.15;;;1.52;;
35558;SDS011;21661;50.794;-1.066;2023-08-30T10:16:53;6.70;;;1.70;;
35558;SDS011;21661;50.794;-1.066;2023-08-30T10:19:30;4.93;;;2.00;;
35558;SDS011;21661;50.794;-1.066;2023-08-30T10:22:04;5.50;;;1.60;;
35558;SDS011;21661;50.794;-1.066;2023-08-30T10:24:40;6.22;;;2.00;;
35558;SDS011;21661;50.794;-1.066;2023-08-30T10:27:09;5.95;;;1.58;;
35558;SDS011;21661;50.794;-1.066;2023-08-30T10:29:36;5.70;;;1.85;;
35558;SDS011;21661;50.794;-1.066;2023-08-30T10:32:04;5.43;;;1.90;;
35558;SDS011;21661;50.794;-1.066;2023-08-30T10:34:34;4.80;;;1.67;;
35558;SDS011;21661;50.794;-1.066;2023-08-30T10:37:02;3.40;;;1.58;;
35558;SDS011;21661;50.794;-1.066;2023-08-30T10:39:38;5.25;;;1.98;;
35558;SDS011;21661;50.794;-1.066;2023-08-30T10:42:14;5.28;;;1.80;;
35558;SDS011;21661;50.794;-1.066;2023-08-30T10:44:56;5.40;;;1.95;;
35558;SDS011;21661;50.794;-1.066;2023-08-30T10:47:24;6.45;;;1.88;;
35558;SDS011;21661;50.794;-1.066;2023-08-30T10:49:55;6.03;;;1.50;;
35558;SDS011;21661;50.794;-1.066;2023-08-30T10:52:22;3.88;;;1.83;;
35558;SDS011;21661;50.794;-1.066;2023-08-30T10:54:48;4.28;;;1.73;;
35558;SDS011;21661;50.794;-1.066;2023-08-30T10:57:15;6.05;;;1.90;;
35558;SDS011;21661;50.794;-1.066;2023-08-30T11:02:35;3.47;;;1.30;;
35558;SDS011;21661;50.794;-1.066;2023-08-30T11:05:02;5.72;;;1.80;;
35558;SDS011;21661;50.794;-1.066;2023-08-30T11:07:30;3.33;;;1.60;;
35558;SDS011;21661;50.794;-1.066;2023-08-30T11:09:56;4.30;;;1.30;;
35558;SDS011;21661;50.794;-1.066;2023-08-30T11:12:22;5.88;;;1.50;;
35558;SDS011;21661;50.794;-1.066;2023-08-30T11:14:54;5.97;;;1.70;;
35558;SDS011;21661;50.794;-1.066;2023-08-30T11:17:20;3.60;;;1.73;;
35558;SDS011;21661;50.794;-1.066;2023-08-30T11:19:45;6.40;;;2.08;;
35558;SDS011;21661;50.794;-1.066;2023-08-30T11:22:14;5.22;;;1.80;;
35558;SDS011;21661;50.794;-1.066;2023-08-30T11:24:41;4.50;;;1.75;;
35558;SDS011;21661;50.794;-1.066;2023-08-30T11:27:08;3.65;;;1.63;;
35558;SDS011;21661;50.794;-1.066;2023-08-30T11:29:34;5.50;;;1.70;;
35558;SDS011;21661;50.794;-1.066;2023-08-30T11:32:00;4.45;;;1.60;;
35558;SDS011;21661;50.794;-1.066;2023-08-30T11:34:26;6.32;;;1.88;;
35558;SDS011;21661;50.794;-1.066;2023-08-30T11:36:51;5.70;;;1.73;;
35558;SDS011;21661;50.794;-1.066;2023-08-30T11:39:18;4.82;;;1.70;;
35558;SDS011;21661;50.794;-1.066;2023-08-30T11:41:45;4.70;;;2.05;;
35558;SDS011;21661;50.794;-1.066;2023-08-30T11:44:11;3.83;;;1.65;;
35558;SDS011;21661;50.794;-1.066;2023-08-30T11:46:37;5.68;;;1.73;;
35558;SDS011;21661;50.794;-1.066;2023-08-30T11:49:04;4.32;;;1.83;;
35558;SDS011;21661;50.794;-1.066;2023-08-30T11:51:30;9.02;;;1.92;;
35558;SDS011;21661;50.794;-1.066;2023-08-30T11:53:57;4.55;;;1.80;;
35558;SDS011;21661;50.794;-1.066;2023-08-30T11:56:23;5.20;;;1.95;;
35558;SDS011;21661;50.794;-1.066;2023-08-30T11:58:49;7.97;;;2.30;;
35558;SDS011;21661;50.794;-1.066;2023-08-30T12:01:16;4.93;;;1.80;;
35558;SDS011;21661;50.794;-1.066;2023-08-30T12:03:43;4.18;;;1.77;;
35558;SDS011;21661;50.794;-1.066;2023-08-30T12:06:15;3.83;;;1.48;;
35558;SDS011;21661;50.794;-1.066;2023-08-30T12:08:41;4.28;;;1.70;;
35558;SDS011;21661;50.794;-1.066;2023-08-30T12:11:17;5.28;;;2.15;;
35558;SDS011;21661;50.794;-1.066;2023-08-30T12:13:46;5.18;;;1.73;;
35558;SDS011;21661;50.794;-1.066;2023-08-30T12:16:16;2.60;;;1.42;;
35558;SDS011;21661;50.794;-1.066;2023-08-30T12:18:42;7.07;;;1.50;;
35558;SDS011;21661;50.794;-1.066;2023-08-30T12:21:08;5.78;;;1.60;;
35558;SDS011;21661;50.794;-1.066;2023-08-30T12:23:34;5.35;;;1.92;;
35558;SDS011;21661;50.794;-1.066;2023-08-30T12:26:09;3.83;;;1.75;;
35558;SDS011;21661;50.794;-1.066;2023-08-30T12:28:39;3.95;;;1.52;;
35558;SDS011;21661;50.794;-1.066;2023-08-30T12:31:06;5.40;;;1.52;;
35558;SDS011;21661;50.794;-1.066;2023-08-30T12:33:33;4.90;;;1.50;;
35558;SDS011;21661;50.794;-1.066;2023-08-30T12:35:59;4.80;;;1.60;;
35558;SDS011;21661;50.794;-1.066;2023-08-30T12:38:25;3.58;;;1.70;;
35558;SDS011;21661;50.794;-1.066;2023-08-30T12:40:52;6.38;;;2.15;;
35558;SDS011;21661;50.794;-1.066;2023-08-30T12:43:19;4.85;;;2.17;;
35558;SDS011;21661;50.794;-1.066;2023-08-30T12:45:46;3.92;;;1.67;;
35558;SDS011;21661;50.794;-1.066;2023-08-30T12:48:13;5.22;;;1.40;;
35558;SDS011;21661;50.794;-1.066;2023-08-30T12:50:40;3.47;;;1.70;;
35558;SDS011;21661;50.794;-1.066;2023-08-30T12:53:07;4.95;;;1.35;;
35558;SDS011;21661;50.794;-1.066;2023-08-30T12:55:33;3.47;;;1.60;;
35558;SDS011;21661;50.794;-1.066;2023-08-30T12:57:59;28.27;;;2.58;;
35558;SDS011;21661;50.794;-1.066;2023-08-30T13:00:26;7.43;;;2.05;;
35558;SDS011;21661;50.794;-1.066;2023-08-30T13:02:52;3.53;;;1.52;;
35558;SDS011;21661;50.794;-1.066;2023-08-30T13:05:17;4.60;;;1.92;;
35558;SDS011;21661;50.794;-1.066;2023-08-30T13:07:43;11.45;;;2.38;;
35558;SDS011;21661;50.794;-1.066;2023-08-30T13:10:09;5.18;;;1.80;;
35558;SDS011;21661;50.794;-1.066;2023-08-30T13:12:36;5.38;;;1.60;;
35558;SDS011;21661;50.794;-1.066;2023-08-30T13:15:02;4.53;;;1.70;;
35558;SDS011;21661;50.794;-1.066;2023-08-30T13:17:31;3.83;;;1.65;;
35558;SDS011;21661;50.794;-1.066;2023-08-30T13:19:56;3.72;;;1.75;;
35558;SDS011;21661;50.794;-1.066;2023-08-30T13:22:23;6.05;;;1.50;;
35558;SDS011;21661;50.794;-1.066;2023-08-30T13:24:49;3.45;;;1.40;;
35558;SDS011;21661;50.794;-1.066;2023-08-30T13:27:14;3.63;;;1.65;;
35558;SDS011;21661;50.794;-1.066;2023-08-30T13:29:40;2.58;;;1.25;;
35558;SDS011;21661;50.794;-1.066;2023-08-30T13:32:05;2.80;;;1.50;;
35558;SDS011;21661;50.794;-1.066;2023-08-30T13:34:31;4.40;;;1.50;;
35558;SDS011;21661;50.794;-1.066;2023-08-30T13:36:57;5.00;;;1.50;;
35558;SDS011;21661;50.794;-1.066;2023-08-30T13:39:22;4.45;;;1.23;;
35558;SDS011;21661;50.794;-1.066;2023-08-30T13:41:48;4.47;;;1.42;;
35558;SDS011;21661;50.794;-1.066;2023-08-30T13:44:14;2.50;;;1.30;;
35558;SDS011;21661;50.794;-1.066;2023-08-30T13:46:40;3.70;;;1.30;;
35558;SDS011;21661;50.794;-1.066;2023-08-30T13:49:06;3.63;;;1.35;;
35558;SDS011;21661;50.794;-1.066;2023-08-30T13:51:32;3.28;;;1.48;;
35558;SDS011;21661;50.794;-1.066;2023-08-30T13:53:57;3.22;;;1.30;;
35558;SDS011;21661;50.794;-1.066;2023-08-30T13:56:23;4.47;;;1.50;;
35558;SDS011;21661;50.794;-1.066;2023-08-30T13:58:49;3.35;;;1.40;;
35558;SDS011;21661;50.794;-1.066;2023-08-30T14:01:15;4.72;;;1.50;;
35558;SDS011;21661;50.794;-1.066;2023-08-30T14:03:41;3.70;;;1.63;;
35558;SDS011;21661;50.794;-1.066;2023-08-30T14:06:07;3.92;;;1.52;;
35558;SDS011;21661;50.794;-1.066;2023-08-30T14:08:33;3.30;;;1.50;;
35558;SDS011;21661;50.794;-1.066;2023-08-30T14:10:59;20.80;;;2.47;;
35558;SDS011;21661;50.794;-1.066;2023-08-30T14:13:24;2.58;;;1.30;;
35558;SDS011;21661;50.794;-1.066;2023-08-30T14:15:50;2.42;;;1.10;;
35558;SDS011;21661;50.794;-1.066;2023-08-30T14:18:16;3.92;;;1.50;;
35558;SDS011;21661;50.794;-1.066;2023-08-30T14:20:42;3.17;;;1.23;;
35558;SDS011;21661;50.794;-1.066;2023-08-30T14:23:08;6.13;;;2.05;;
35558;SDS011;21661;50.794;-1.066;2023-08-30T14:25:34;4.55;;;1.42;;
35558;SDS011;21661;50.794;-1.066;2023-08-30T14:28:00;2.63;;;1.05;;
35558;SDS011;21661;50.794;-1.066;2023-08-30T14:30:27;3.97;;;1.80;;
35558;SDS011;21661;50.794;-1.066;2023-08-30T14:32:53;3.30;;;1.60;;
35558;SDS011;21661;50.794;-1.066;2023-08-30T14:35:19;4.00;;;1.23;;
35558;SDS011;21661;50.794;-1.066;2023-08-30T14:37:49;4.55;;;1.42;;
35558;SDS011;21661;50.794;-1.066;2023-08-30T14:40:15;1.83;;;1.10;;
35558;SDS011;21661;50.794;-1.066;2023-08-30T14:42:41;3.78;;;1.30;;